sensor_id;sensor_type;location;lat;lon;timestamp;pressure;altitude;pressure_sealevel;temperature;humidity
24440;BME280;12618;54.386;18.394;2023-02-12T00:01:45;101236.19;;;1.44;100.00
24440;BME280;12618;54.386;18.394;2023-02-12T00:04:16;101238.45;;;1.44;100.00
24440;BME280;12618;54.386;18.394;2023-02-12T00:06:48;101234.81;;;1.45;100.00
24440;BME280;12618;54.386;18.394;2023-02-12T00:09:20;101233.07;;;1.44;100.00
24440;BME280;12618;54.386;18.394;2023-02-12T00:11:51;101240.73;;;1.46;100.00
24440;BME280;12618;54.386;18.394;2023-02-12T00:14:24;101248.50;;;1.44;100.00
24440;BME280;12618;54.386;18.394;2023-02-12T00:16:55;101246.06;;;1.42;100.00
24440;BME280;12618;54.386;18.394;2023-02-12T00:19:27;101241.15;;;1.39;100.00
24440;BME280;12618;54.386;18.394;2023-02-12T00:21:59;101247.91;;;1.38;100.00
24440;BME280;12618;54.386;18.394;2023-02-12T00:24:31;101256.97;;;1.41;100.00
24440;BME280;12618;54.386;18.394;2023-02-12T00:27:03;101256.77;;;1.40;100.00
24440;BME280;12618;54.386;18.394;2023-02-12T00:29:36;101250.51;;;1.38;100.00
24440;BME280;12618;54.386;18.394;2023-02-12T00:32:07;101257.57;;;1.35;100.00
24440;BME280;12618;54.386;18.394;2023-02-12T00:34:39;101257.70;;;1.31;100.00
24440;BME280;12618;54.386;18.394;2023-02-12T00:37:11;101263.72;;;1.28;100.00
24440;BME280;12618;54.386;18.394;2023-02-12T00:39:43;101265.92;;;1.26;100.00
24440;BME280;12618;54.386;18.394;2023-02-12T00:42:15;101267.98;;;1.24;100.00
24440;BME280;12618;54.386;18.394;2023-02-12T00:44:49;101272.81;;;1.22;100.00
24440;BME280;12618;54.386;18.394;2023-02-12T00:47:21;101277.48;;;1.22;100.00
24440;BME280;12618;54.386;18.394;2023-02-12T00:49:53;101280.60;;;1.20;100.00
24440;BME280;12618;54.386;18.394;2023-02-12T00:52:25;101283.04;;;1.23;100.00
24440;BME280;12618;54.386;18.394;2023-02-12T00:54:56;101282.89;;;1.24;100.00
24440;BME280;12618;54.386;18.394;2023-02-12T00:57:28;101285.32;;;1.24;100.00
24440;BME280;12618;54.386;18.394;2023-02-12T01:00:00;101279.31;;;1.27;100.00
24440;BME280;12618;54.386;18.394;2023-02-12T01:02:31;101282.27;;;1.28;100.00
24440;BME280;12618;54.386;18.394;2023-02-12T01:05:03;101278.95;;;1.27;100.00
24440;BME280;12618;54.386;18.394;2023-02-12T01:07:35;101283.23;;;1.23;100.00
24440;BME280;12618;54.386;18.394;2023-02-12T01:10:08;101286.15;;;1.21;100.00
24440;BME280;12618;54.386;18.394;2023-02-12T01:12:40;101290.23;;;1.16;100.00
24440;BME280;12618;54.386;18.394;2023-02-12T01:15:13;101291.91;;;1.13;100.00
24440;BME280;12618;54.386;18.394;2023-02-12T01:17:45;101290.31;;;1.09;100.00
24440;BME280;12618;54.386;18.394;2023-02-12T01:20:19;101292.86;;;1.07;100.00
24440;BME280;12618;54.386;18.394;2023-02-12T01:22:51;101293.00;;;1.05;100.00
24440;BME280;12618;54.386;18.394;2023-02-12T01:25:22;101299.68;;;1.01;100.00
24440;BME280;12618;54.386;18.394;2023-02-12T01:27:54;101306.45;;;0.91;100.00
24440;BME280;12618;54.386;18.394;2023-02-12T01:30:26;101312.69;;;0.81;100.00
24440;BME280;12618;54.386;18.394;2023-02-12T01:32:57;101309.85;;;0.76;100.00
24440;BME280;12618;54.386;18.394;2023-02-12T01:35:30;101312.06;;;0.73;100.00
24440;BME280;12618;54.386;18.394;2023-02-12T01:38:02;101318.59;;;0.71;100.00
24440;BME280;12618;54.386;18.394;2023-02-12T01:40:34;101331.73;;;0.69;100.00
24440;BME280;12618;54.386;18.394;2023-02-12T01:43:10;101332.41;;;0.69;100.00
24440;BME280;12618;54.386;18.394;2023-02-12T01:45:46;101332.21;;;0.68;100.00
24440;BME280;12618;54.386;18.394;2023-02-12T01:48:20;101329.60;;;0.67;100.00
24440;BME280;12618;54.386;18.394;2023-02-12T01:50:54;101331.36;;;0.68;100.00
24440;BME280;12618;54.386;18.394;2023-02-12T01:53:30;101328.59;;;0.68;100.00
24440;BME280;12618;54.386;18.394;2023-02-12T01:56:03;101335.31;;;0.66;100.00
24440;BME280;12618;54.386;18.394;2023-02-12T01:58:39;101336.34;;;0.66;100.00
24440;BME280;12618;54.386;18.394;2023-02-12T02:01:25;101336.84;;;0.64;100.00
24440;BME280;12618;54.386;18.394;2023-02-12T02:04:01;101340.17;;;0.58;100.00
24440;BME280;12618;54.386;18.394;2023-02-12T02:06:41;101344.59;;;0.53;100.00
24440;BME280;12618;54.386;18.394;2023-02-12T02:09:16;101344.35;;;0.50;100.00
24440;BME280;12618;54.386;18.394;2023-02-12T02:11:48;101345.54;;;0.48;100.00
24440;BME280;12618;54.386;18.394;2023-02-12T02:14:39;101349.14;;;0.46;100.00
24440;BME280;12618;54.386;18.394;2023-02-12T02:30:58;101361.98;;;0.14;100.00
24440;BME280;12618;54.386;18.394;2023-02-12T02:33:44;101363.02;;;0.05;100.00
24440;BME280;12618;54.386;18.394;2023-02-12T02:36:56;101368.27;;;-0.09;100.00
24440;BME280;12618;54.386;18.394;2023-02-12T02:39:53;101368.20;;;-0.19;100.00
24440;BME280;12618;54.386;18.394;2023-02-12T02:42:30;101364.42;;;-0.18;100.00
24440;BME280;12618;54.386;18.394;2023-02-12T02:45:10;101364.36;;;-0.20;100.00
24440;BME280;12618;54.386;18.394;2023-02-12T02:47:47;101366.80;;;-0.28;100.00
24440;BME280;12618;54.386;18.394;2023-02-12T02:50:22;101360.42;;;-0.34;100.00
24440;BME280;12618;54.386;18.394;2023-02-12T02:53:07;101361.21;;;-0.38;100.00
24440;BME280;12618;54.386;18.394;2023-02-12T02:55:45;101366.31;;;-0.41;100.00
24440;BME280;12618;54.386;18.394;2023-02-12T02:58:35;101364.69;;;-0.44;100.00
24440;BME280;12618;54.386;18.394;2023-02-12T03:09:03;101390.69;;;-0.48;100.00
24440;BME280;12618;54.386;18.394;2023-02-12T03:11:37;101400.77;;;-0.53;100.00
24440;BME280;12618;54.386;18.394;2023-02-12T03:14:28;101407.66;;;-0.54;100.00
24440;BME280;12618;54.386;18.394;2023-02-12T03:17:13;101408.14;;;-0.57;100.00
24440;BME280;12618;54.386;18.394;2023-02-12T03:20:04;101406.19;;;-0.59;100.00
24440;BME280;12618;54.386;18.394;2023-02-12T03:22:39;101412.35;;;-0.61;100.00
24440;BME280;12618;54.386;18.394;2023-02-12T03:25:15;101418.69;;;-0.63;100.00
24440;BME280;12618;54.386;18.394;2023-02-12T03:27:57;101421.07;;;-0.64;100.00
24440;BME280;12618;54.386;18.394;2023-02-12T03:30:43;101418.94;;;-0.68;100.00
24440;BME280;12618;54.386;18.394;2023-02-12T03:39:28;101424.91;;;-0.77;100.00
24440;BME280;12618;54.386;18.394;2023-02-12T03:42:16;101428.42;;;-0.82;100.00
24440;BME280;12618;54.386;18.394;2023-02-12T03:44:56;101433.48;;;-0.86;100.00
24440;BME280;12618;54.386;18.394;2023-02-12T03:47:56;101435.58;;;-0.93;100.00
24440;BME280;12618;54.386;18.394;2023-02-12T03:50:43;101442.56;;;-0.96;100.00
24440;BME280;12618;54.386;18.394;2023-02-12T03:53:17;101443.15;;;-1.00;100.00
24440;BME280;12618;54.386;18.394;2023-02-12T03:55:52;101437.69;;;-1.04;100.00
24440;BME280;12618;54.386;18.394;2023-02-12T03:58:28;101438.63;;;-1.07;100.00
24440;BME280;12618;54.386;18.394;2023-02-12T04:01:02;101445.30;;;-1.10;100.00
24440;BME280;12618;54.386;18.394;2023-02-12T04:03:34;101445.46;;;-1.10;100.00
24440;BME280;12618;54.386;18.394;2023-02-12T04:06:18;101444.92;;;-1.11;100.00
24440;BME280;12618;54.386;18.394;2023-02-12T04:08:52;101448.67;;;-1.13;100.00
24440;BME280;12618;54.386;18.394;2023-02-12T04:20:09;101446.19;;;-1.15;100.00
24440;BME280;12618;54.386;18.394;2023-02-12T04:26:13;101453.23;;;-1.23;100.00
24440;BME280;12618;54.386;18.394;2023-02-12T04:29:10;101457.15;;;-1.25;100.00
24440;BME280;12618;54.386;18.394;2023-02-12T04:31:55;101467.63;;;-1.27;100.00
24440;BME280;12618;54.386;18.394;2023-02-12T04:34:32;101463.95;;;-1.28;100.00
24440;BME280;12618;54.386;18.394;2023-02-12T04:37:17;101467.23;;;-1.28;100.00
24440;BME280;12618;54.386;18.394;2023-02-12T04:39:50;101475.19;;;-1.28;100.00
24440;BME280;12618;54.386;18.394;2023-02-12T04:42:23;101481.77;;;-1.27;100.00
24440;BME280;12618;54.386;18.394;2023-02-12T04:44:55;101483.58;;;-1.30;100.00
24440;BME280;12618;54.386;18.394;2023-02-12T04:47:26;101483.30;;;-1.35;100.00
24440;BME280;12618;54.386;18.394;2023-02-12T04:49:58;101479.25;;;-1.37;100.00
24440;BME280;12618;54.386;18.394;2023-02-12T04:52:30;101481.17;;;-1.36;100.00
24440;BME280;12618;54.386;18.394;2023-02-12T04:55:02;101477.14;;;-1.39;100.00
24440;BME280;12618;54.386;18.394;2023-02-12T04:57:33;101479.94;;;-1.37;100.00
24440;BME280;12618;54.386;18.394;2023-02-12T05:00:07;101481.14;;;-1.37;100.00
24440;BME280;12618;54.386;18.394;2023-02-12T05:02:43;101481.27;;;-1.39;100.00
24440;BME280;12618;54.386;18.394;2023-02-12T05:05:14;101484.98;;;-1.41;100.00
24440;BME280;12618;54.386;18.394;2023-02-12T05:07:46;101486.32;;;-1.43;100.00
24440;BME280;12618;54.386;18.394;2023-02-12T05:10:19;101489.78;;;-1.43;100.00
24440;BME280;12618;54.386;18.394;2023-02-12T05:12:51;101492.70;;;-1.43;100.00
24440;BME280;12618;54.386;18.394;2023-02-12T05:15:23;101495.80;;;-1.44;100.00
24440;BME280;12618;54.386;18.394;2023-02-12T05:17:55;101497.52;;;-1.45;100.00
24440;BME280;12618;54.386;18.394;2023-02-12T05:20:26;101500.95;;;-1.45;100.00
24440;BME280;12618;54.386;18.394;2023-02-12T05:22:58;101496.58;;;-1.47;100.00
24440;BME280;12618;54.386;18.394;2023-02-12T05:32:31;101489.70;;;-1.46;100.00
24440;BME280;12618;54.386;18.394;2023-02-12T05:35:06;101492.33;;;-1.45;100.00
24440;BME280;12618;54.386;18.394;2023-02-12T05:37:38;101492.46;;;-1.46;100.00
24440;BME280;12618;54.386;18.394;2023-02-12T05:40:10;101496.93;;;-1.47;100.00
24440;BME280;12618;54.386;18.394;2023-02-12T05:42:42;101501.46;;;-1.45;100.00
24440;BME280;12618;54.386;18.394;2023-02-12T05:45:13;101500.10;;;-1.44;100.00
24440;BME280;12618;54.386;18.394;2023-02-12T05:47:45;101504.31;;;-1.41;100.00
24440;BME280;12618;54.386;18.394;2023-02-12T05:50:17;101504.52;;;-1.41;100.00
24440;BME280;12618;54.386;18.394;2023-02-12T05:52:48;101500.72;;;-1.40;100.00
24440;BME280;12618;54.386;18.394;2023-02-12T05:55:21;101502.98;;;-1.40;100.00
24440;BME280;12618;54.386;18.394;2023-02-12T05:57:53;101507.29;;;-1.40;100.00
24440;BME280;12618;54.386;18.394;2023-02-12T06:00:25;101509.36;;;-1.40;100.00
24440;BME280;12618;54.386;18.394;2023-02-12T06:02:56;101514.03;;;-1.40;100.00
24440;BME280;12618;54.386;18.394;2023-02-12T06:05:28;101519.95;;;-1.38;100.00
24440;BME280;12618;54.386;18.394;2023-02-12T06:08:00;101524.66;;;-1.37;100.00
24440;BME280;12618;54.386;18.394;2023-02-12T06:10:31;101528.84;;;-1.36;100.00
24440;BME280;12618;54.386;18.394;2023-02-12T06:13:03;101533.84;;;-1.36;100.00
24440;BME280;12618;54.386;18.394;2023-02-12T06:15:35;101532.13;;;-1.35;100.00
24440;BME280;12618;54.386;18.394;2023-02-12T06:18:07;101537.34;;;-1.35;100.00
24440;BME280;12618;54.386;18.394;2023-02-12T06:20:39;101535.80;;;-1.34;100.00
24440;BME280;12618;54.386;18.394;2023-02-12T06:23:10;101540.82;;;-1.33;100.00
24440;BME280;12618;54.386;18.394;2023-02-12T06:25:42;101546.95;;;-1.30;100.00
24440;BME280;12618;54.386;18.394;2023-02-12T06:28:14;101550.47;;;-1.28;100.00
24440;BME280;12618;54.386;18.394;2023-02-12T06:30:46;101550.20;;;-1.26;100.00
24440;BME280;12618;54.386;18.394;2023-02-12T06:33:18;101547.42;;;-1.20;100.00
24440;BME280;12618;54.386;18.394;2023-02-12T06:35:49;101548.60;;;-1.16;100.00
24440;BME280;12618;54.386;18.394;2023-02-12T06:38:21;101552.23;;;-1.09;100.00
24440;BME280;12618;54.386;18.394;2023-02-12T06:40:53;101552.11;;;-1.02;100.00
24440;BME280;12618;54.386;18.394;2023-02-12T06:43:25;101556.06;;;-0.97;100.00
24440;BME280;12618;54.386;18.394;2023-02-12T06:46:00;101558.82;;;-0.91;100.00
24440;BME280;12618;54.386;18.394;2023-02-12T06:48:32;101558.02;;;-0.76;100.00
24440;BME280;12618;54.386;18.394;2023-02-12T06:51:13;101555.15;;;-0.61;100.00
24440;BME280;12618;54.386;18.394;2023-02-12T06:53:45;101559.16;;;-0.60;100.00
24440;BME280;12618;54.386;18.394;2023-02-12T06:56:17;101551.33;;;-0.55;100.00
24440;BME280;12618;54.386;18.394;2023-02-12T06:58:54;101551.92;;;-0.46;100.00
24440;BME280;12618;54.386;18.394;2023-02-12T07:01:28;101553.65;;;-0.39;100.00
24440;BME280;12618;54.386;18.394;2023-02-12T07:04:03;101551.13;;;-0.30;100.00
24440;BME280;12618;54.386;18.394;2023-02-12T07:06:35;101547.94;;;-0.19;100.00
24440;BME280;12618;54.386;18.394;2023-02-12T07:09:06;101545.08;;;-0.09;100.00
24440;BME280;12618;54.386;18.394;2023-02-12T07:11:38;101543.27;;;0.17;100.00
24440;BME280;12618;54.386;18.394;2023-02-12T07:14:14;101542.16;;;0.59;100.00
24440;BME280;12618;54.386;18.394;2023-02-12T07:16:47;101544.95;;;0.76;100.00
24440;BME280;12618;54.386;18.394;2023-02-12T07:19:19;101552.16;;;0.65;100.00
24440;BME280;12618;54.386;18.394;2023-02-12T07:21:50;101548.80;;;0.55;100.00
24440;BME280;12618;54.386;18.394;2023-02-12T07:24:23;101546.52;;;0.52;100.00
24440;BME280;12618;54.386;18.394;2023-02-12T07:26:54;101547.70;;;0.51;100.00
24440;BME280;12618;54.386;18.394;2023-02-12T07:29:26;101547.70;;;0.51;100.00
24440;BME280;12618;54.386;18.394;2023-02-12T07:31:58;101548.08;;;0.52;100.00
24440;BME280;12618;54.386;18.394;2023-02-12T07:34:30;101548.57;;;0.51;100.00
24440;BME280;12618;54.386;18.394;2023-02-12T07:37:01;101552.70;;;0.50;100.00
24440;BME280;12618;54.386;18.394;2023-02-12T07:39:33;101549.78;;;0.51;100.00
24440;BME280;12618;54.386;18.394;2023-02-12T07:42:05;101544.13;;;0.54;100.00
24440;BME280;12618;54.386;18.394;2023-02-12T07:44:39;101547.95;;;0.54;100.00
24440;BME280;12618;54.386;18.394;2023-02-12T07:47:14;101552.50;;;0.57;100.00
24440;BME280;12618;54.386;18.394;2023-02-12T07:49:46;101552.46;;;0.62;100.00
24440;BME280;12618;54.386;18.394;2023-02-12T07:52:18;101553.70;;;0.71;100.00
24440;BME280;12618;54.386;18.394;2023-02-12T07:54:50;101547.42;;;0.79;100.00
24440;BME280;12618;54.386;18.394;2023-02-12T07:57:22;101552.50;;;0.89;100.00
24440;BME280;12618;54.386;18.394;2023-02-12T07:59:54;101553.05;;;0.99;100.00
24440;BME280;12618;54.386;18.394;2023-02-12T08:02:43;101552.88;;;1.07;100.00
24440;BME280;12618;54.386;18.394;2023-02-12T08:05:15;101546.52;;;1.10;100.00
24440;BME280;12618;54.386;18.394;2023-02-12T08:07:46;101542.09;;;1.14;100.00
24440;BME280;12618;54.386;18.394;2023-02-12T08:10:19;101539.77;;;1.18;100.00
24440;BME280;12618;54.386;18.394;2023-02-12T08:12:52;101541.10;;;1.26;100.00
24440;BME280;12618;54.386;18.394;2023-02-12T08:15:24;101534.98;;;1.31;100.00
24440;BME280;12618;54.386;18.394;2023-02-12T08:17:56;101541.30;;;1.36;100.00
24440;BME280;12618;54.386;18.394;2023-02-12T08:20:28;101540.75;;;1.43;100.00
24440;BME280;12618;54.386;18.394;2023-02-12T08:22:59;101541.07;;;1.51;100.00
24440;BME280;12618;54.386;18.394;2023-02-12T08:25:31;101543.05;;;1.56;100.00
24440;BME280;12618;54.386;18.394;2023-02-12T08:28:03;101549.88;;;1.59;100.00
24440;BME280;12618;54.386;18.394;2023-02-12T08:30:34;101551.38;;;1.66;100.00
24440;BME280;12618;54.386;18.394;2023-02-12T08:33:06;101544.52;;;1.71;100.00
24440;BME280;12618;54.386;18.394;2023-02-12T08:35:38;101538.75;;;1.78;100.00
24440;BME280;12618;54.386;18.394;2023-02-12T08:38:09;101527.44;;;1.85;100.00
24440;BME280;12618;54.386;18.394;2023-02-12T08:40:41;101530.29;;;1.91;100.00
24440;BME280;12618;54.386;18.394;2023-02-12T08:43:13;101532.98;;;1.95;100.00
24440;BME280;12618;54.386;18.394;2023-02-12T08:45:45;101529.55;;;1.98;100.00
24440;BME280;12618;54.386;18.394;2023-02-12T08:48:16;101533.65;;;2.05;100.00
24440;BME280;12618;54.386;18.394;2023-02-12T08:50:51;101532.50;;;2.09;100.00
24440;BME280;12618;54.386;18.394;2023-02-12T08:53:22;101532.41;;;2.14;100.00
24440;BME280;12618;54.386;18.394;2023-02-12T08:55:54;101536.49;;;2.20;100.00
24440;BME280;12618;54.386;18.394;2023-02-12T08:58:26;101538.30;;;2.25;100.00
24440;BME280;12618;54.386;18.394;2023-02-12T09:00:58;101545.02;;;2.33;100.00
24440;BME280;12618;54.386;18.394;2023-02-12T09:03:30;101543.23;;;2.40;100.00
24440;BME280;12618;54.386;18.394;2023-02-12T09:06:03;101544.91;;;2.48;100.00
24440;BME280;12618;54.386;18.394;2023-02-12T09:08:36;101536.83;;;2.54;100.00
24440;BME280;12618;54.386;18.394;2023-02-12T09:11:11;101529.56;;;2.58;100.00
24440;BME280;12618;54.386;18.394;2023-02-12T09:13:45;101528.78;;;2.63;100.00
24440;BME280;12618;54.386;18.394;2023-02-12T09:16:17;101527.15;;;2.71;100.00
24440;BME280;12618;54.386;18.394;2023-02-12T09:18:49;101528.08;;;2.75;100.00
24440;BME280;12618;54.386;18.394;2023-02-12T09:21:21;101529.34;;;2.80;100.00
24440;BME280;12618;54.386;18.394;2023-02-12T09:23:53;101531.52;;;2.87;100.00
24440;BME280;12618;54.386;18.394;2023-02-12T09:26:25;101524.67;;;2.96;100.00
24440;BME280;12618;54.386;18.394;2023-02-12T09:28:58;101527.05;;;3.05;100.00
24440;BME280;12618;54.386;18.394;2023-02-12T09:31:32;101527.70;;;3.16;100.00
24440;BME280;12618;54.386;18.394;2023-02-12T09:34:06;101524.70;;;3.28;100.00
24440;BME280;12618;54.386;18.394;2023-02-12T09:36:38;101524.45;;;3.38;100.00
24440;BME280;12618;54.386;18.394;2023-02-12T09:39:10;101530.46;;;3.47;100.00
24440;BME280;12618;54.386;18.394;2023-02-12T09:44:35;101522.30;;;3.66;100.00
24440;BME280;12618;54.386;18.394;2023-02-12T09:47:29;101523.96;;;3.78;100.00
24440;BME280;12618;54.386;18.394;2023-02-12T09:50:29;101522.46;;;3.84;100.00
24440;BME280;12618;54.386;18.394;2023-02-12T09:53:04;101526.98;;;3.85;100.00
24440;BME280;12618;54.386;18.394;2023-02-12T09:55:36;101524.89;;;3.83;100.00
24440;BME280;12618;54.386;18.394;2023-02-12T09:58:15;101524.89;;;3.82;100.00
24440;BME280;12618;54.386;18.394;2023-02-12T10:00:49;101525.39;;;3.80;100.00
24440;BME280;12618;54.386;18.394;2023-02-12T10:03:21;101530.05;;;3.78;100.00
24440;BME280;12618;54.386;18.394;2023-02-12T10:05:59;101531.66;;;3.82;100.00
24440;BME280;12618;54.386;18.394;2023-02-12T10:09:02;101525.77;;;3.86;100.00
24440;BME280;12618;54.386;18.394;2023-02-12T10:11:46;101524.46;;;3.94;100.00
24440;BME280;12618;54.386;18.394;2023-02-12T10:22:48;101515.02;;;4.14;100.00
24440;BME280;12618;54.386;18.394;2023-02-12T10:25:44;101508.27;;;4.20;100.00
24440;BME280;12618;54.386;18.394;2023-02-12T10:28:38;101507.81;;;4.27;100.00
24440;BME280;12618;54.386;18.394;2023-02-12T10:31:36;101496.50;;;4.31;100.00
24440;BME280;12618;54.386;18.394;2023-02-12T10:34:33;101489.86;;;4.30;100.00
24440;BME280;12618;54.386;18.394;2023-02-12T10:37:17;101482.08;;;4.39;100.00
24440;BME280;12618;54.386;18.394;2023-02-12T10:40:04;101474.79;;;4.45;100.00
24440;BME280;12618;54.386;18.394;2023-02-12T10:42:39;101474.13;;;4.50;100.00
24440;BME280;12618;54.386;18.394;2023-02-12T10:45:18;101477.08;;;4.49;100.00
24440;BME280;12618;54.386;18.394;2023-02-12T10:47:54;101468.54;;;4.48;100.00
24440;BME280;12618;54.386;18.394;2023-02-12T10:53:17;101462.41;;;4.45;100.00
24440;BME280;12618;54.386;18.394;2023-02-12T11:01:30;101466.64;;;4.53;100.00
24440;BME280;12618;54.386;18.394;2023-02-12T11:04:22;101470.33;;;4.59;100.00
24440;BME280;12618;54.386;18.394;2023-02-12T11:07:00;101475.94;;;4.63;100.00
24440;BME280;12618;54.386;18.394;2023-02-12T11:09:42;101477.48;;;4.65;100.00
24440;BME280;12618;54.386;18.394;2023-02-12T11:12:37;101473.87;;;4.72;100.00
24440;BME280;12618;54.386;18.394;2023-02-12T11:15:21;101461.54;;;4.84;100.00
24440;BME280;12618;54.386;18.394;2023-02-12T11:18:21;101458.27;;;4.97;100.00
24440;BME280;12618;54.386;18.394;2023-02-12T11:21:03;101452.52;;;5.01;100.00
24440;BME280;12618;54.386;18.394;2023-02-12T11:23:39;101450.43;;;5.02;100.00
24440;BME280;12618;54.386;18.394;2023-02-12T11:28:53;101448.52;;;5.10;100.00
24440;BME280;12618;54.386;18.394;2023-02-12T11:31:27;101450.81;;;5.15;100.00
24440;BME280;12618;54.386;18.394;2023-02-12T11:40:36;101465.58;;;4.91;100.00
24440;BME280;12618;54.386;18.394;2023-02-12T11:43:15;101463.64;;;4.88;100.00
24440;BME280;12618;54.386;18.394;2023-02-12T11:45:50;101466.95;;;4.85;100.00
24440;BME280;12618;54.386;18.394;2023-02-12T11:48:30;101466.05;;;4.80;100.00
24440;BME280;12618;54.386;18.394;2023-02-12T11:51:06;101469.36;;;4.78;100.00
24440;BME280;12618;54.386;18.394;2023-02-12T11:53:41;101474.58;;;4.77;100.00
24440;BME280;12618;54.386;18.394;2023-02-12T11:56:13;101470.58;;;4.75;100.00
24440;BME280;12618;54.386;18.394;2023-02-12T11:58:47;101459.74;;;4.70;100.00
24440;BME280;12618;54.386;18.394;2023-02-12T12:01:26;101461.42;;;4.56;100.00
24440;BME280;12618;54.386;18.394;2023-02-12T12:04:21;101458.89;;;4.39;100.00
24440;BME280;12618;54.386;18.394;2023-02-12T12:07:00;101455.89;;;4.31;100.00
24440;BME280;12618;54.386;18.394;2023-02-12T12:09:40;101448.73;;;4.27;100.00
24440;BME280;12618;54.386;18.394;2023-02-12T12:18:01;101440.40;;;4.04;100.00
24440;BME280;12618;54.386;18.394;2023-02-12T12:21:01;101436.71;;;3.98;100.00
24440;BME280;12618;54.386;18.394;2023-02-12T12:23:38;101437.00;;;3.92;100.00
24440;BME280;12618;54.386;18.394;2023-02-12T12:26:20;101431.55;;;3.82;100.00
24440;BME280;12618;54.386;18.394;2023-02-12T12:29:06;101421.77;;;3.79;100.00
24440;BME280;12618;54.386;18.394;2023-02-12T12:31:52;101415.49;;;3.78;100.00
24440;BME280;12618;54.386;18.394;2023-02-12T12:34:27;101410.77;;;3.75;100.00
24440;BME280;12618;54.386;18.394;2023-02-12T12:43:33;101378.83;;;3.88;100.00
24440;BME280;12618;54.386;18.394;2023-02-12T12:54:25;101369.55;;;3.81;100.00
24440;BME280;12618;54.386;18.394;2023-02-12T13:00:26;101373.95;;;3.86;100.00
24440;BME280;12618;54.386;18.394;2023-02-12T13:17:44;101404.88;;;3.53;100.00
24440;BME280;12618;54.386;18.394;2023-02-12T13:20:36;101397.52;;;3.47;100.00
24440;BME280;12618;54.386;18.394;2023-02-12T13:23:35;101394.88;;;3.45;100.00
24440;BME280;12618;54.386;18.394;2023-02-12T13:29:18;101386.00;;;3.45;100.00
24440;BME280;12618;54.386;18.394;2023-02-12T13:32:04;101386.34;;;3.41;100.00
24440;BME280;12618;54.386;18.394;2023-02-12T13:34:37;101383.85;;;3.36;100.00
24440;BME280;12618;54.386;18.394;2023-02-12T13:37:15;101387.83;;;3.32;100.00
24440;BME280;12618;54.386;18.394;2023-02-12T13:39:49;101391.64;;;3.29;100.00
24440;BME280;12618;54.386;18.394;2023-02-12T13:56:56;101373.28;;;3.20;100.00
24440;BME280;12618;54.386;18.394;2023-02-12T14:02:25;101374.30;;;3.17;100.00
24440;BME280;12618;54.386;18.394;2023-02-12T14:07:46;101375.19;;;3.18;100.00
24440;BME280;12618;54.386;18.394;2023-02-12T14:13:19;101374.67;;;3.20;100.00
24440;BME280;12618;54.386;18.394;2023-02-12T14:15:54;101372.07;;;3.22;100.00
24440;BME280;12618;54.386;18.394;2023-02-12T14:18:33;101370.54;;;3.25;100.00
24440;BME280;12618;54.386;18.394;2023-02-12T14:23:45;101358.77;;;3.30;100.00
24440;BME280;12618;54.386;18.394;2023-02-12T14:26:19;101354.42;;;3.32;100.00
24440;BME280;12618;54.386;18.394;2023-02-12T14:29:01;101357.73;;;3.35;100.00
24440;BME280;12618;54.386;18.394;2023-02-12T14:31:35;101358.99;;;3.38;100.00
24440;BME280;12618;54.386;18.394;2023-02-12T14:36:41;101356.41;;;3.42;100.00
24440;BME280;12618;54.386;18.394;2023-02-12T14:44:54;101357.66;;;3.47;100.00
24440;BME280;12618;54.386;18.394;2023-02-12T14:50:12;101359.02;;;3.44;100.00
24440;BME280;12618;54.386;18.394;2023-02-12T14:52:50;101356.95;;;3.45;100.00
24440;BME280;12618;54.386;18.394;2023-02-12T14:55:26;101361.98;;;3.45;100.00
24440;BME280;12618;54.386;18.394;2023-02-12T14:58:04;101362.15;;;3.43;100.00
24440;BME280;12618;54.386;18.394;2023-02-12T15:00:40;101365.63;;;3.44;100.00
24440;BME280;12618;54.386;18.394;2023-02-12T15:03:52;101361.45;;;3.43;100.00
24440;BME280;12618;54.386;18.394;2023-02-12T15:06:36;101363.55;;;3.42;100.00
24440;BME280;12618;54.386;18.394;2023-02-12T15:09:20;101361.64;;;3.42;100.00
24440;BME280;12618;54.386;18.394;2023-02-12T15:14:39;101353.62;;;3.44;100.00
24440;BME280;12618;54.386;18.394;2023-02-12T15:17:26;101348.75;;;3.43;100.00
24440;BME280;12618;54.386;18.394;2023-02-12T15:20:03;101343.88;;;3.43;100.00
24440;BME280;12618;54.386;18.394;2023-02-12T15:22:39;101339.17;;;3.43;100.00
24440;BME280;12618;54.386;18.394;2023-02-12T15:28:23;101338.33;;;3.43;100.00
24440;BME280;12618;54.386;18.394;2023-02-12T15:30:56;101340.58;;;3.43;100.00
24440;BME280;12618;54.386;18.394;2023-02-12T15:33:30;101338.15;;;3.42;100.00
24440;BME280;12618;54.386;18.394;2023-02-12T15:36:03;101333.98;;;3.42;100.00
24440;BME280;12618;54.386;18.394;2023-02-12T15:38:37;101327.36;;;3.41;100.00
24440;BME280;12618;54.386;18.394;2023-02-12T15:44:18;101324.04;;;3.40;100.00
24440;BME280;12618;54.386;18.394;2023-02-12T15:49:31;101312.01;;;3.37;100.00
24440;BME280;12618;54.386;18.394;2023-02-12T15:52:09;101313.04;;;3.36;100.00
24440;BME280;12618;54.386;18.394;2023-02-12T15:54:46;101310.08;;;3.36;100.00
24440;BME280;12618;54.386;18.394;2023-02-12T15:57:21;101308.69;;;3.36;100.00
24440;BME280;12618;54.386;18.394;2023-02-12T15:59:56;101303.30;;;3.36;100.00
24440;BME280;12618;54.386;18.394;2023-02-12T16:02:32;101305.21;;;3.37;100.00
24440;BME280;12618;54.386;18.394;2023-02-12T16:05:05;101310.78;;;3.37;100.00
24440;BME280;12618;54.386;18.394;2023-02-12T16:07:37;101314.80;;;3.38;100.00
24440;BME280;12618;54.386;18.394;2023-02-12T16:10:13;101314.11;;;3.38;100.00